Time;durP1;ratioP1;P1;durP2;ratioP2;P2;SDS_P1;SDS_P2;PMS_P1;PMS_P2;Temp;Humidity;BMP_temperature;BMP_pressure;BME280_temperature;BME280_humidity;BME280_pressure;Samples;Min_cycle;Max_cycle;Signal;HPM_P1;HPM_P2
2024/01/09 00:00:42;;;;;;;5.72;2.40;;;;;;;2.91;100.00;102734.31;5088985;28;20040;-48
2024/01/09 00:03:09;;;;;;;4.13;1.42;;;;;;;2.91;100.00;102717.91;5088670;28;20055;-56
2024/01/09 00:05:37;;;;;;;6.95;1.45;;;;;;;2.92;99.65;102735.16;5088079;28;20058;-47
2024/01/09 00:08:05;;;;;;;2.08;1.10;;;;;;;2.91;99.34;102737.06;5090674;28;20051;-48
2024/01/09 00:10:32;;;;;;;5.70;1.05;;;;;;;2.93;99.34;102742.31;5090551;28;20055;-52
2024/01/09 00:13:00;;;;;;;4.93;1.15;;;;;;;2.93;98.73;102740.41;5073406;28;20678;-51
2024/01/09 00:15:28;;;;;;;4.55;1.25;;;;;;;2.93;98.62;102732.19;5091065;28;20041;-51
2024/01/09 00:17:55;;;;;;;3.22;1.45;;;;;;;2.94;98.38;102720.16;5090874;28;20056;-47
2024/01/09 00:20:23;;;;;;;6.85;1.17;;;;;;;2.93;98.17;102714.94;5090642;28;20405;-49
2024/01/09 00:22:52;;;;;;;4.20;1.20;;;;;;;2.93;97.59;102726.72;5091255;28;20040;-48
2024/01/09 00:25:19;;;;;;;6.30;2.00;;;;;;;2.93;97.29;102713.03;5089636;28;20052;-47
2024/01/09 00:27:47;;;;;;;10.35;1.38;;;;;;;2.93;97.06;102720.41;5090688;28;20050;-50
2024/01/09 00:30:14;;;;;;;4.47;1.27;;;;;;;2.93;96.76;102715.78;5072603;28;20040;-50
2024/01/09 00:32:46;;;;;;;3.35;1.20;;;;;;;2.94;96.28;102719.31;5090349;28;20052;-48
2024/01/09 00:35:17;;;;;;;4.00;1.40;;;;;;;2.93;95.58;102713.03;5077817;28;20048;-47
2024/01/09 00:37:44;;;;;;;3.05;1.35;;;;;;;2.95;95.51;102724.56;5090223;28;20079;-47
2024/01/09 00:40:11;;;;;;;6.85;2.13;;;;;;;2.94;95.48;102711.94;5090163;28;20406;-46
2024/01/09 00:42:39;;;;;;;1.63;1.08;;;;;;;2.93;95.73;102712.22;5072672;28;20051;-48
2024/01/09 00:45:07;;;;;;;4.30;1.45;;;;;;;2.93;95.53;102710.31;5089631;28;20051;-47
2024/01/09 00:47:35;;;;;;;5.22;1.45;;;;;;;2.94;95.07;102713.84;5085402;28;20044;-51
2024/01/09 00:50:02;;;;;;;4.45;1.20;;;;;;;2.94;94.85;102709.22;5090751;28;20074;-52
2024/01/09 00:52:30;;;;;;;4.65;1.15;;;;;;;2.94;94.33;102703.75;5089380;28;20048;-47
2024/01/09 00:54:57;;;;;;;4.38;1.13;;;;;;;2.96;94.54;102701.59;5091190;28;20048;-50
2024/01/09 00:57:24;;;;;;;4.55;0.90;;;;;;;2.95;94.47;102708.16;5061474;28;20051;-50
2024/01/09 00:59:52;;;;;;;5.43;1.35;;;;;;;2.95;93.73;102699.94;5090378;28;20051;-49
2024/01/09 01:02:19;;;;;;;6.20;1.45;;;;;;;2.95;92.95;102697.19;5089741;28;20062;-49
2024/01/09 01:04:46;;;;;;;11.15;1.30;;;;;;;2.96;93.40;102698.88;5088677;28;20055;-47
2024/01/09 01:07:14;;;;;;;6.90;1.42;;;;;;;2.95;92.39;102704.56;5088715;28;20504;-48
2024/01/09 01:09:41;;;;;;;6.10;1.88;;;;;;;2.95;92.94;102685.44;5070953;28;20055;-47
2024/01/09 01:12:08;;;;;;;3.00;1.17;;;;;;;2.94;92.63;102684.59;5083400;28;20052;-46
2024/01/09 01:14:36;;;;;;;6.30;1.60;;;;;;;2.93;92.35;102677.47;5089086;28;20051;-48
2024/01/09 01:17:04;;;;;;;1.75;1.00;;;;;;;2.92;92.39;102675.81;5090238;28;20421;-50
2024/01/09 01:19:31;;;;;;;9.30;2.13;;;;;;;2.90;91.71;102683.44;5089035;28;20051;-50
2024/01/09 01:21:59;;;;;;;5.82;1.42;;;;;;;2.93;92.21;102684.84;5089390;28;20051;-52
2024/01/09 01:24:26;;;;;;;3.58;1.45;;;;;;;2.93;91.29;102679.38;5086135;28;20436;-47
2024/01/09 01:26:53;;;;;;;5.15;1.35;;;;;;;2.93;91.26;102674.75;5089839;28;20052;-52
2024/01/09 01:29:21;;;;;;;5.93;1.10;;;;;;;2.93;91.12;102674.75;5089093;28;20558;-52
2024/01/09 01:31:48;;;;;;;11.43;2.00;;;;;;;2.94;90.85;102668.19;5088857;28;20045;-50
2024/01/09 01:34:15;;;;;;;4.95;1.27;;;;;;;2.94;91.12;102676.38;5070414;28;20052;-54
2024/01/09 01:36:43;;;;;;;3.78;1.30;;;;;;;2.96;91.03;102677.00;5088651;28;20044;-50
2024/01/09 01:39:11;;;;;;;6.00;1.48;;;;;;;2.97;91.49;102680.53;5089694;28;20047;-50
2024/01/09 01:41:39;;;;;;;6.07;1.50;;;;;;;2.97;91.62;102675.88;5089825;28;20417;-49
2024/01/09 01:44:15;;;;;;;6.80;2.08;;;;;;;2.96;91.19;102670.69;5089905;28;20040;-49
2024/01/09 01:46:45;;;;;;;10.55;2.08;;;;;;;2.96;91.30;102666.03;5087920;28;20566;-46
2024/01/09 01:49:16;;;;;;;10.07;1.38;;;;;;;2.95;91.53;102658.91;5090235;28;20387;-48
2024/01/09 01:51:45;;;;;;;12.90;1.77;;;;;;;2.95;91.56;102658.06;5089478;28;20043;-49
2024/01/09 01:54:14;;;;;;;5.70;1.40;;;;;;;2.95;91.17;102658.91;5088954;28;20116;-51
2024/01/09 01:56:43;;;;;;;6.50;1.17;;;;;;;2.96;91.52;102655.09;5089421;28;20047;-52
2024/01/09 01:59:13;;;;;;;2.38;0.95;;;;;;;2.96;91.45;102648.78;5075218;28;20071;-53
2024/01/09 02:01:43;;;;;;;5.50;1.40;;;;;;;2.97;91.47;102654.00;5088276;28;20052;-50
2024/01/09 02:04:11;;;;;;;7.07;1.10;;;;;;;2.97;91.52;102662.22;5088217;28;20047;-47
2024/01/09 02:06:40;;;;;;;8.05;2.08;;;;;;;3.00;91.84;102669.09;5087244;28;20036;-51
2024/01/09 02:09:07;;;;;;;5.65;2.13;;;;;;;3.00;91.62;102666.34;5088338;28;20401;-50
2024/01/09 02:11:36;;;;;;;10.13;2.53;;;;;;;2.99;91.72;102670.19;5088352;28;20047;-47
2024/01/09 02:14:03;;;;;;;8.77;1.90;;;;;;;2.99;91.94;102662.78;5084686;28;20525;-50
2024/01/09 02:16:31;;;;;;;5.10;2.55;;;;;;;2.97;91.59;102666.84;5064125;28;20063;-48
2024/01/09 02:18:58;;;;;;;4.82;1.40;;;;;;;2.95;91.30;102652.59;5088740;28;20134;-53
2024/01/09 02:21:25;;;;;;;8.05;1.83;;;;;;;2.94;91.09;102661.88;5088518;28;20047;-50
2024/01/09 02:23:53;;;;;;;8.43;1.88;;;;;;;2.94;90.32;102656.41;5087776;28;20048;-51
2024/01/09 02:26:29;;;;;;;3.25;1.48;;;;;;;2.93;90.50;102660.22;5079780;28;20072;-51
2024/01/09 02:29:22;;;;;;;3.83;1.60;;;;;;;2.92;90.33;102675.81;5088793;28;20055;-49
2024/01/09 02:31:52;;;;;;;2.92;1.08;;;;;;;2.90;89.96;102668.94;5088273;28;20056;-52
2024/01/09 02:34:21;;;;;;;7.70;1.60;;;;;;;2.88;90.13;102663.72;5087880;28;20048;-48
2024/01/09 02:36:48;;;;;;;8.55;1.83;;;;;;;2.87;89.79;102662.03;5070464;28;20058;-47
2024/01/09 02:39:16;;;;;;;8.30;1.20;;;;;;;2.88;89.79;102657.41;5087816;28;20048;-46
2024/01/09 02:41:43;;;;;;;6.03;1.50;;;;;;;2.87;90.24;102662.03;5087866;28;20052;-47
2024/01/09 02:44:11;;;;;;;11.43;3.53;;;;;;;2.89;89.80;102659.88;5075452;28;20807;-50
2024/01/09 02:46:38;;;;;;;6.45;2.28;;;;;;;2.91;89.74;102665.13;5086762;28;20048;-48
2024/01/09 02:49:06;;;;;;;6.70;2.40;;;;;;;2.92;89.98;102659.41;5087875;28;20406;-49
2024/01/09 02:51:34;;;;;;;4.68;1.23;;;;;;;2.93;89.71;102665.69;5085844;28;20044;-51
2024/01/09 02:54:01;;;;;;;6.28;2.13;;;;;;;2.93;89.72;102666.53;5086956;28;20052;-49
2024/01/09 02:56:29;;;;;;;3.28;1.33;;;;;;;2.93;89.59;102666.53;5087755;28;20046;-48
2024/01/09 02:58:56;;;;;;;6.68;1.17;;;;;;;2.93;88.90;102660.22;5087051;28;20043;-48
2024/01/09 03:01:24;;;;;;;5.15;1.58;;;;;;;2.93;88.65;102660.22;5142195;22;20071;-50
2024/01/09 03:03:51;;;;;;;12.80;1.67;;;;;;;2.94;88.48;102668.19;5066729;28;20048;-51
2024/01/09 03:06:19;;;;;;;11.02;2.72;;;;;;;2.95;88.69;102661.63;5067221;28;20054;-46
2024/01/09 03:08:48;;;;;;;5.22;1.50;;;;;;;2.95;88.36;102667.09;5065410;28;20040;-46
2024/01/09 03:11:16;;;;;;;4.55;1.52;;;;;;;2.96;88.76;102666.03;5060796;28;20052;-51
2024/01/09 03:13:43;;;;;;;5.55;1.52;;;;;;;2.95;88.53;102655.31;5066382;28;20056;-50
2024/01/09 03:16:11;;;;;;;5.25;1.48;;;;;;;2.95;88.11;102645.22;5062716;28;20059;-49
2024/01/09 03:18:43;;;;;;;7.53;1.40;;;;;;;2.94;88.07;102646.28;5051043;28;20044;-53
2024/01/09 03:21:11;;;;;;;9.55;1.67;;;;;;;2.96;88.16;102649.63;5061924;28;20540;-48
2024/01/09 03:23:38;;;;;;;14.18;1.88;;;;;;;2.97;88.00;102647.69;5066190;28;20090;-49
2024/01/09 03:26:06;;;;;;;10.88;1.83;;;;;;;2.98;88.29;102649.38;5048573;28;20660;-48
2024/01/09 03:28:36;;;;;;;6.75;1.73;;;;;;;2.99;88.39;102646.38;5066738;28;20036;-50
2024/01/09 03:31:03;;;;;;;6.20;2.17;;;;;;;2.99;88.26;102657.31;5066351;28;20053;-53
2024/01/09 03:33:32;;;;;;;2.90;1.67;;;;;;;2.99;88.18;102643.63;5066386;28;20036;-46
2024/01/09 03:36:04;;;;;;;9.10;2.03;;;;;;;2.97;88.52;102634.84;5066313;28;20565;-51
2024/01/09 03:38:31;;;;;;;4.53;1.05;;;;;;;2.97;88.30;102640.31;5056696;28;20397;-52
2024/01/09 03:40:58;;;;;;;5.07;1.83;;;;;;;2.96;88.37;102646.06;5066260;28;20497;-48
2024/01/09 03:43:26;;;;;;;7.43;1.70;;;;;;;2.94;88.11;102635.34;5065856;28;20047;-49
2024/01/09 03:45:54;;;;;;;3.63;1.75;;;;;;;2.92;88.37;102637.50;5065449;28;20052;-51
2024/01/09 03:48:22;;;;;;;5.25;1.80;;;;;;;2.91;88.38;102646.78;5066890;28;20410;-54
2024/01/09 03:50:49;;;;;;;9.20;1.90;;;;;;;2.89;88.26;102643.47;5061737;28;20049;-52
2024/01/09 03:53:18;;;;;;;4.82;1.92;;;;;;;2.87;87.78;102645.63;5066534;28;20139;-46
2024/01/09 03:55:45;;;;;;;8.50;2.22;;;;;;;2.87;87.84;102644.78;5062610;28;20045;-49
2024/01/09 03:58:13;;;;;;;7.57;1.38;;;;;;;2.87;87.68;102648.38;5066364;28;20049;-51
2024/01/09 04:00:40;;;;;;;8.77;1.75;;;;;;;2.88;87.34;102651.94;5055199;28;20410;-49
2024/01/09 04:03:07;;;;;;;9.60;1.85;;;;;;;2.87;87.11;102644.78;5066217;28;20067;-50
2024/01/09 04:05:35;;;;;;;4.40;1.02;;;;;;;2.86;86.93;102646.69;5066075;28;20073;-47
2024/01/09 04:08:02;;;;;;;6.47;1.75;;;;;;;2.86;86.44;102656.84;5066572;28;20040;-49
2024/01/09 04:10:31;;;;;;;6.07;1.70;;;;;;;2.85;86.26;102647.78;5065148;28;20060;-51
2024/01/09 04:12:58;;;;;;;7.53;1.33;;;;;;;2.85;86.58;102645.06;5050804;28;20052;-53
2024/01/09 04:15:25;;;;;;;5.72;1.50;;;;;;;2.85;86.60;102636.84;5055985;28;20049;-51
2024/01/09 04:17:52;;;;;;;6.47;1.35;;;;;;;2.86;86.26;102633.03;5064825;28;20045;-50
2024/01/09 04:20:20;;;;;;;6.60;1.13;;;;;;;2.88;86.24;102643.72;5063308;28;20048;-50
2024/01/09 04:22:47;;;;;;;7.30;3.13;;;;;;;2.89;86.65;102639.91;5065558;28;20168;-48
2024/01/09 04:25:17;;;;;;;12.48;3.08;;;;;;;2.89;86.78;102635.25;5066091;28;20752;-48
2024/01/09 04:27:44;;;;;;;12.05;1.80;;;;;;;2.90;86.94;102639.66;5064954;28;20051;-46
2024/01/09 04:30:12;;;;;;;5.82;1.52;;;;;;;2.92;86.82;102639.41;5061218;28;20067;-48
2024/01/09 04:32:40;;;;;;;9.63;2.03;;;;;;;2.92;86.79;102634.78;5062152;28;20438;-50
2024/01/09 04:35:08;;;;;;;8.63;1.63;;;;;;;2.93;86.92;102628.22;5035214;28;20110;-47
2024/01/09 04:37:35;;;;;;;8.50;1.45;;;;;;;2.91;86.81;102644.03;5059896;28;20044;-54
2024/01/09 04:40:03;;;;;;;6.00;1.20;;;;;;;2.87;85.81;102639.31;5066335;28;20044;-50
2024/01/09 04:42:30;;;;;;;3.97;1.27;;;;;;;2.81;85.74;102635.66;5065589;28;20044;-47
2024/01/09 04:44:57;;;;;;;4.00;1.10;;;;;;;2.78;85.37;102636.16;5060618;28;20049;-54
2024/01/09 04:47:26;;;;;;;4.30;1.63;;;;;;;2.74;85.76;102637.75;5068077;28;20036;-51
2024/01/09 04:49:54;;;;;;;2.47;1.38;;;;;;;2.73;85.61;102627.88;5058118;28;20045;-50
2024/01/09 04:52:21;;;;;;;4.43;1.60;;;;;;;2.75;86.09;102633.13;5069793;28;20048;-50
2024/01/09 04:54:48;;;;;;;7.35;1.88;;;;;;;2.77;86.31;102636.41;5069324;28;20064;-47
2024/01/09 04:57:18;;;;;;;11.15;2.55;;;;;;;2.78;86.52;102636.16;5069250;28;20044;-50
2024/01/09 04:59:45;;;;;;;7.90;2.00;;;;;;;2.81;86.71;102623.91;5069335;28;20359;-48
2024/01/09 05:02:12;;;;;;;7.75;1.60;;;;;;;2.83;86.92;102622.56;5069764;28;20059;-51
2024/01/09 05:04:40;;;;;;;6.78;1.30;;;;;;;2.88;87.07;102619.94;5070411;28;20044;-50
2024/01/09 05:07:07;;;;;;;7.13;1.83;;;;;;;2.90;87.13;102623.25;5068003;28;20052;-51
2024/01/09 05:09:34;;;;;;;4.53;1.55;;;;;;;2.93;86.99;102619.19;5068687;28;20502;-50
2024/01/09 05:12:02;;;;;;;7.70;1.88;;;;;;;2.94;87.27;102624.41;5069643;28;20048;-51
2024/01/09 05:14:29;;;;;;;6.68;1.25;;;;;;;2.96;87.35;102622.28;5069539;28;20501;-49
2024/01/09 05:16:57;;;;;;;6.57;2.00;;;;;;;2.97;87.44;102629.38;5068861;28;20049;-51
2024/01/09 05:19:24;;;;;;;12.77;2.63;;;;;;;2.98;87.52;102617.38;5059227;28;20051;-51
2024/01/09 05:21:51;;;;;;;2.53;1.30;;;;;;;2.99;87.12;102629.94;5061751;28;20625;-48
2024/01/09 05:24:19;;;;;;;11.43;2.42;;;;;;;2.97;87.11;102637.59;5069429;28;20047;-50
2024/01/09 05:26:46;;;;;;;9.07;1.35;;;;;;;2.93;86.80;102633.69;5064310;28;20049;-48
2024/01/09 05:29:13;;;;;;;3.70;1.30;;;;;;;2.91;86.80;102627.63;5068728;28;20059;-51
2024/01/09 05:31:43;;;;;;;4.45;1.75;;;;;;;2.91;86.76;102635.84;5069332;28;20040;-49
2024/01/09 05:34:11;;;;;;;6.22;2.00;;;;;;;2.90;86.51;102645.13;5068143;28;20147;-49
2024/01/09 05:36:38;;;;;;;4.35;1.60;;;;;;;2.91;86.81;102635.84;5068739;28;20568;-51
2024/01/09 05:39:06;;;;;;;5.07;1.48;;;;;;;2.87;86.21;102637.44;5067808;28;20101;-47
2024/01/09 05:41:35;;;;;;;13.80;2.30;;;;;;;2.84;85.83;102634.34;5068348;28;20041;-52
2024/01/09 05:44:02;;;;;;;7.40;1.88;;;;;;;2.80;85.69;102631.28;5068458;28;20410;-52
2024/01/09 05:46:29;;;;;;;4.97;1.50;;;;;;;2.78;85.62;102613.47;5069477;28;20051;-48
2024/01/09 05:48:57;;;;;;;5.93;1.70;;;;;;;2.77;86.21;102615.38;5050869;28;20040;-50
2024/01/09 05:51:24;;;;;;;3.75;1.27;;;;;;;2.80;86.43;102616.78;5068374;28;20045;-51
2024/01/09 05:53:53;;;;;;;10.35;1.75;;;;;;;2.82;86.12;102615.47;5052010;28;20130;-49
2024/01/09 05:56:20;;;;;;;5.88;1.40;;;;;;;2.86;86.14;102626.75;5051823;28;20041;-50
2024/01/09 05:58:47;;;;;;;2.58;1.02;;;;;;;2.84;85.80;102624.25;5068271;28;20045;-50
2024/01/09 06:01:15;;;;;;;9.60;1.83;;;;;;;2.83;85.48;102635.44;5068929;28;20052;-48
2024/01/09 06:03:43;;;;;;;4.78;1.70;;;;;;;2.79;85.12;102643.31;5068383;28;20048;-52
2024/01/09 06:06:10;;;;;;;18.08;3.30;;;;;;;2.74;84.72;102645.94;5063748;28;20036;-49
2024/01/09 06:08:38;;;;;;;14.57;2.80;;;;;;;2.72;84.86;102642.66;5050399;28;20049;-49
2024/01/09 06:11:06;;;;;;;8.77;1.90;;;;;;;2.71;84.96;102635.50;5068113;28;20057;-53
2024/01/09 06:13:33;;;;;;;5.10;1.42;;;;;;;2.70;84.94;102649.44;5068503;28;20045;-49
2024/01/09 06:16:00;;;;;;;6.07;1.63;;;;;;;2.69;85.18;102640.41;5068005;28;20041;-46
2024/01/09 06:18:28;;;;;;;6.35;1.38;;;;;;;2.68;85.30;102633.25;5068381;28;20052;-53
2024/01/09 06:20:55;;;;;;;9.10;1.58;;;;;;;2.69;84.93;102643.13;5066992;28;20040;-51
2024/01/09 06:23:23;;;;;;;5.75;1.48;;;;;;;2.70;85.14;102627.56;5068559;28;20041;-51
2024/01/09 06:25:50;;;;;;;8.77;2.72;;;;;;;2.71;85.16;102630.03;5068198;28;20044;-49
2024/01/09 06:28:17;;;;;;;7.00;1.85;;;;;;;2.73;84.88;102632.50;5066745;28;20056;-52
2024/01/09 06:30:45;;;;;;;9.48;1.30;;;;;;;2.75;85.33;102638.59;5067200;28;20049;-49
2024/01/09 06:33:13;;;;;;;8.23;1.77;;;;;;;2.78;84.97;102647.09;5067946;28;20387;-52
2024/01/09 06:35:41;;;;;;;5.00;1.77;;;;;;;2.78;85.25;102647.09;5067162;28;20052;-50
2024/01/09 06:38:08;;;;;;;9.45;1.88;;;;;;;2.80;85.17;102636.78;5049449;28;20429;-50
2024/01/09 06:40:36;;;;;;;15.05;1.92;;;;;;;2.82;85.05;102651.00;5068035;28;20127;-47
2024/01/09 06:43:05;;;;;;;5.82;1.08;;;;;;;2.83;85.17;102646.38;5067226;28;20044;-50
2024/01/09 06:45:33;;;;;;;7.63;1.67;;;;;;;2.84;85.28;102656.22;5049495;28;20052;-48
2024/01/09 06:48:00;;;;;;;7.72;1.60;;;;;;;2.85;85.35;102653.25;5067703;28;20044;-49
2024/01/09 06:50:28;;;;;;;7.20;1.90;;;;;;;2.84;85.12;102657.06;5066992;28;20055;-48
2024/01/09 06:53:07;;;;;;;12.10;1.98;;;;;;;2.82;85.19;102659.22;5062077;28;20056;-49
2024/01/09 06:55:34;;;;;;;13.80;1.30;;;;;;;2.79;85.18;102661.59;5066764;28;20075;-52
2024/01/09 06:58:05;;;;;;;4.18;1.10;;;;;;;2.74;84.88;102656.06;5067373;28;20048;-49
2024/01/09 07:00:34;;;;;;;4.38;1.75;;;;;;;2.73;84.73;102660.69;5066358;28;20044;-48
2024/01/09 07:03:01;;;;;;;6.40;1.58;;;;;;;2.74;85.11;102651.41;5058107;28;20048;-49
2024/01/09 07:05:29;;;;;;;3.97;1.65;;;;;;;2.78;85.25;102646.31;5067133;28;20047;-48
2024/01/09 07:07:57;;;;;;;12.90;2.13;;;;;;;2.79;85.86;102654.25;5058241;28;20053;-48
2024/01/09 07:10:24;;;;;;;12.55;3.17;;;;;;;2.82;85.55;102659.22;5064852;28;20051;-46
2024/01/09 07:12:51;;;;;;;8.30;4.10;;;;;;;2.85;85.87;102650.53;5065942;28;20051;-48
2024/01/09 07:15:18;;;;;;;7.25;2.65;;;;;;;2.89;85.70;102659.88;5066187;28;20052;-53
2024/01/09 07:17:46;;;;;;;8.30;1.48;;;;;;;2.92;85.58;102658.56;5067192;28;20052;-47
2024/01/09 07:20:16;;;;;;;5.95;1.13;;;;;;;2.92;85.52;102675.81;5067283;28;20091;-49
2024/01/09 07:22:43;;;;;;;3.88;1.42;;;;;;;2.93;85.06;102672.00;5066886;28;20048;-48
2024/01/09 07:25:15;;;;;;;8.85;2.90;;;;;;;2.94;85.29;102668.19;5066044;28;20047;-50
2024/01/09 07:27:42;;;;;;;6.93;1.20;;;;;;;2.96;85.46;102673.41;5066981;28;20032;-52
2024/01/09 07:30:10;;;;;;;7.07;1.45;;;;;;;2.96;85.24;102665.22;5066970;28;20053;-49
2024/01/09 07:32:38;;;;;;;6.65;1.83;;;;;;;2.98;85.15;102661.16;5067179;28;20052;-47
2024/01/09 07:35:07;;;;;;;6.72;1.92;;;;;;;3.01;85.42;102676.25;5066994;28;20032;-50
2024/01/09 07:37:34;;;;;;;9.32;1.83;;;;;;;3.02;85.42;102675.13;5066797;28;20537;-51
2024/01/09 07:40:03;;;;;;;6.70;2.08;;;;;;;3.03;85.44;102666.69;5066714;28;20052;-52
2024/01/09 07:42:31;;;;;;;12.43;3.13;;;;;;;3.05;85.49;102666.44;5067232;28;20048;-48
2024/01/09 07:45:03;;;;;;;8.50;1.90;;;;;;;3.06;85.56;102668.09;5063013;28;20052;-53
2024/01/09 07:47:31;;;;;;;14.57;2.17;;;;;;;3.06;85.81;102665.38;5063437;28;20052;-49
2024/01/09 07:49:58;;;;;;;7.95;3.50;;;;;;;3.06;85.67;102663.47;5066998;28;20481;-52
2024/01/09 07:52:26;;;;;;;4.38;1.25;;;;;;;3.06;85.97;102658.00;5066185;28;20055;-51
2024/01/09 07:54:53;;;;;;;15.52;1.98;;;;;;;3.07;85.60;102673.31;5053534;28;20033;-50
2024/01/09 07:57:24;;;;;;;4.88;1.65;;;;;;;3.07;85.86;102662.38;5051062;28;20056;-50
2024/01/09 07:59:57;;;;;;;9.88;1.63;;;;;;;3.10;85.62;102671.19;5066716;28;20807;-50
2024/01/09 08:02:27;;;;;;;11.55;2.13;;;;;;;3.08;85.96;102683.19;5066521;28;20063;-46
2024/01/09 08:04:55;;;;;;;9.07;1.38;;;;;;;3.09;85.83;102675.81;5067018;28;20453;-50
2024/01/09 08:07:22;;;;;;;8.77;1.88;;;;;;;3.09;86.05;102681.31;5066400;28;20052;-51
2024/01/09 08:09:49;;;;;;;8.50;3.08;;;;;;;3.11;86.23;102678.31;5066465;28;20056;-48
2024/01/09 08:12:17;;;;;;;7.35;2.00;;;;;;;3.12;86.54;102685.44;5066865;28;20045;-52
2024/01/09 08:14:44;;;;;;;6.88;3.03;;;;;;;3.11;86.66;102684.59;5065440;28;20045;-50
2024/01/09 08:17:11;;;;;;;10.20;2.15;;;;;;;3.14;86.48;102692.31;5061646;28;20036;-53
2024/01/09 08:19:39;;;;;;;7.95;2.30;;;;;;;3.17;86.32;102699.22;5066170;28;20131;-53
2024/01/09 08:22:06;;;;;;;5.95;1.52;;;;;;;3.16;86.70;102697.53;5068669;28;20036;-52
2024/01/09 08:24:33;;;;;;;16.70;2.88;;;;;;;3.17;86.48;102704.69;5062943;28;20510;-51
2024/01/09 08:27:01;;;;;;;5.07;1.75;;;;;;;3.17;86.88;102708.25;5061401;28;20045;-50
2024/01/09 08:29:28;;;;;;;7.45;2.15;;;;;;;3.17;86.63;102710.16;5063661;28;20048;-51
2024/01/09 08:31:56;;;;;;;6.47;1.85;;;;;;;3.18;86.53;102712.63;5067856;28;20036;-51
2024/01/09 08:34:23;;;;;;;8.98;1.50;;;;;;;3.19;86.65;102714.31;5066015;28;20686;-52
2024/01/09 08:36:51;;;;;;;9.80;2.17;;;;;;;3.20;86.35;102715.13;5070389;28;20084;-46
2024/01/09 08:39:18;;;;;;;8.13;1.80;;;;;;;3.21;86.66;102708.56;5061301;28;20049;-50
2024/01/09 08:41:46;;;;;;;10.20;1.95;;;;;;;3.22;87.18;102710.25;5052040;28;20643;-51
2024/01/09 08:44:13;;;;;;;14.05;4.22;;;;;;;3.21;86.87;102712.13;5064490;28;20425;-45
2024/01/09 08:46:41;;;;;;;11.45;3.05;;;;;;;3.22;86.95;102718.44;5064300;28;20043;-47
2024/01/09 08:49:08;;;;;;;20.67;5.72;;;;;;;3.21;87.10;102720.34;5063195;28;20422;-48
2024/01/09 08:51:36;;;;;;;16.63;4.80;;;;;;;3.22;87.45;102712.97;5067539;28;20417;-50
2024/01/09 08:54:05;;;;;;;10.95;3.80;;;;;;;3.22;87.55;102710.25;5066813;28;20077;-49
2024/01/09 08:56:34;;;;;;;14.88;2.88;;;;;;;3.24;87.32;102708.06;5069845;28;20052;-47
2024/01/09 08:59:02;;;;;;;10.40;2.40;;;;;;;3.25;86.88;102712.47;5069245;28;20063;-50
2024/01/09 09:01:30;;;;;;;8.05;2.70;;;;;;;3.25;86.89;102729.75;5068808;28;20060;-50
2024/01/09 09:03:58;;;;;;;8.90;1.70;;;;;;;3.27;86.85;102716.63;5069028;28;20052;-48
2024/01/09 09:06:25;;;;;;;14.15;2.50;;;;;;;3.28;86.77;102729.25;5067334;28;20053;-48
2024/01/09 09:08:53;;;;;;;20.70;3.22;;;;;;;3.29;86.71;102725.41;5068869;28;20037;-52
2024/01/09 09:11:21;;;;;;;11.70;2.50;;;;;;;3.31;86.60;102738.88;5066323;28;20041;-47
2024/01/09 09:13:49;;;;;;;9.65;2.65;;;;;;;3.33;86.68;102747.66;5068627;28;20040;-48
2024/01/09 09:16:16;;;;;;;9.13;2.13;;;;;;;3.33;86.59;102742.19;5068718;28;20048;-48
2024/01/09 09:18:44;;;;;;;6.55;2.17;;;;;;;3.33;86.68;102744.91;5065431;28;20470;-49
2024/01/09 09:21:13;;;;;;;5.32;1.60;;;;;;;3.32;86.96;102751.47;5068935;28;20070;-49
2024/01/09 09:23:41;;;;;;;12.13;2.75;;;;;;;3.33;86.97;102747.66;5069057;28;20517;-52
2024/01/09 09:26:08;;;;;;;21.70;4.40;;;;;;;3.32;87.06;102730.41;5068232;28;20048;-47
2024/01/09 09:28:36;;;;;;;9.45;2.17;;;;;;;3.34;86.78;102743.81;5069492;28;20055;-53
2024/01/09 09:31:21;;;;;;;10.90;2.40;;;;;;;3.35;86.97;102731.81;5059355;28;20064;-48
2024/01/09 09:33:49;;;;;;;13.68;3.60;;;;;;;3.36;86.59;102737.03;5061884;28;20056;-49
2024/01/09 09:36:16;;;;;;;16.95;2.58;;;;;;;3.39;87.09;102736.53;5066513;28;20048;-48
2024/01/09 09:38:44;;;;;;;14.00;2.58;;;;;;;3.48;87.31;102747.91;5069033;28;20052;-52
2024/01/09 09:41:16;;;;;;;6.57;2.35;;;;;;;3.53;87.25;102742.50;5068598;28;20056;-50
2024/01/09 09:43:57;;;;;;;8.18;2.40;;;;;;;3.56;86.87;102736.53;5057987;28;20522;-51
2024/01/09 09:46:31;;;;;;;10.20;2.63;;;;;;;3.57;86.96;102743.69;5068261;28;20048;-52
2024/01/09 09:48:59;;;;;;;7.43;1.80;;;;;;;3.55;86.66;102738.44;5068445;28;20048;-50
2024/01/09 09:51:27;;;;;;;9.00;2.40;;;;;;;3.56;87.16;102737.38;5068104;28;20037;-51
2024/01/09 09:53:55;;;;;;;7.78;1.60;;;;;;;3.61;86.82;102728.38;5068002;28;20048;-50
2024/01/09 09:56:24;;;;;;;10.45;2.72;;;;;;;3.64;86.98;102744.31;5068363;28;20414;-46
2024/01/09 09:58:52;;;;;;;12.80;3.03;;;;;;;3.69;87.37;102747.16;5067157;28;20510;-51
2024/01/09 10:01:23;;;;;;;8.52;2.35;;;;;;;3.67;86.97;102746.56;5063507;28;20063;-51
2024/01/09 10:04:26;;;;;;;7.88;2.75;;;;;;;3.68;87.33;102762.75;5067002;28;20052;-53
2024/01/09 10:06:58;;;;;;;9.75;2.40;;;;;;;3.71;87.30;102766.09;5060794;28;20067;-50
2024/01/09 10:09:35;;;;;;;6.00;2.28;;;;;;;3.74;87.64;102760.06;5067722;28;20041;-53
2024/01/09 10:12:02;;;;;;;9.25;2.55;;;;;;;3.80;87.62;102772.78;5066941;28;20045;-50
2024/01/09 10:14:30;;;;;;;12.82;2.28;;;;;;;3.83;87.32;102766.81;5067810;28;20060;-51
2024/01/09 10:17:03;;;;;;;9.73;2.00;;;;;;;3.82;87.07;102757.75;5067059;28;20059;-50
2024/01/09 10:19:31;;;;;;;12.55;3.35;;;;;;;3.88;87.19;102761.41;5068811;28;20051;-47
2024/01/09 10:21:58;;;;;;;15.88;4.25;;;;;;;3.88;87.39;102764.97;5067691;28;20037;-50
2024/01/09 10:24:25;;;;;;;12.40;3.05;;;;;;;3.87;87.38;102766.03;5067749;28;20042;-50
2024/01/09 10:26:55;;;;;;;4.60;1.73;;;;;;;3.85;87.41;102762.72;5065866;28;20154;-48
2024/01/09 10:29:23;;;;;;;12.35;2.45;;;;;;;3.83;87.46;102767.63;5067229;28;20052;-55
2024/01/09 10:31:50;;;;;;;12.70;2.47;;;;;;;3.81;87.02;102775.28;5060696;28;20063;-52
2024/01/09 10:34:19;;;;;;;7.68;2.22;;;;;;;3.80;87.04;102762.66;5067613;28;20048;-50
2024/01/09 10:36:47;;;;;;;15.40;2.25;;;;;;;3.80;87.25;102765.41;5057160;28;20041;-50
2024/01/09 10:39:14;;;;;;;15.05;4.53;;;;;;;3.82;87.10;102768.72;5060960;28;20049;-48
2024/01/09 10:41:41;;;;;;;5.63;2.00;;;;;;;3.82;86.71;102762.41;5052255;28;20055;-52
2024/01/09 10:44:13;;;;;;;16.27;3.13;;;;;;;3.81;86.87;102760.75;5064824;28;20983;-46
2024/01/09 10:46:42;;;;;;;15.73;3.13;;;;;;;3.80;86.64;102765.41;5063073;28;20052;-46
2024/01/09 10:49:12;;;;;;;11.38;2.65;;;;;;;3.81;86.82;102763.50;5066340;28;20047;-52
2024/01/09 10:51:42;;;;;;;14.05;1.80;;;;;;;3.79;86.87;102751.94;5065922;28;20055;-50
2024/01/09 10:54:11;;;;;;;13.30;2.30;;;;;;;3.82;86.83;102751.44;5066271;28;20040;-50
2024/01/09 10:56:41;;;;;;;11.50;2.10;;;;;;;3.91;86.75;102761.75;5066610;28;20056;-47
2024/01/09 10:59:11;;;;;;;18.23;2.35;;;;;;;3.97;86.79;102755.22;5063213;28;20053;-52
2024/01/09 11:01:38;;;;;;;14.05;3.15;;;;;;;4.01;86.50;102753.66;5067233;28;20052;-49
2024/01/09 11:04:08;;;;;;;16.08;2.42;;;;;;;4.06;86.44;102753.72;5065668;28;20506;-47
2024/01/09 11:06:36;;;;;;;14.77;2.33;;;;;;;4.08;86.34;102743.34;5067121;28;20045;-48
2024/01/09 11:09:10;;;;;;;11.03;2.20;;;;;;;4.07;85.98;102740.84;5066182;28;20055;-48
2024/01/09 11:11:39;;;;;;;7.22;1.73;;;;;;;4.06;85.86;102740.03;5067226;28;20044;-47
2024/01/09 11:14:11;;;;;;;12.57;2.15;;;;;;;4.08;85.92;102750.72;5066116;28;20040;-47
2024/01/09 11:16:42;;;;;;;6.75;1.98;;;;;;;4.14;86.03;102739.59;5067436;28;20119;-49
2024/01/09 11:19:13;;;;;;;11.40;2.53;;;;;;;4.15;86.28;102751.38;5066362;28;20052;-49
2024/01/09 11:21:40;;;;;;;16.67;2.92;;;;;;;4.19;86.41;102763.50;5067087;28;20056;-48
2024/01/09 11:24:08;;;;;;;5.20;1.77;;;;;;;4.17;86.22;102758.28;5065888;28;20745;-49
2024/01/09 11:26:38;;;;;;;7.07;1.58;;;;;;;4.14;85.37;102750.56;5066595;28;20838;-50
2024/01/09 11:29:06;;;;;;;6.43;1.42;;;;;;;4.08;84.90;102761.69;5054925;28;20041;-51
2024/01/09 11:31:35;;;;;;;8.13;2.13;;;;;;;4.06;84.55;102758.38;5066032;28;20037;-47
2024/01/09 11:34:02;;;;;;;10.32;2.50;;;;;;;4.06;85.01;102758.38;5066412;28;20048;-47
2024/01/09 11:36:33;;;;;;;7.03;2.17;;;;;;;4.01;84.78;102750.91;5066369;28;20398;-47